sensor_id;sensor_type;location;lat;lon;timestamp;temperature;humidity
3756;DHT22;1893;52.526;13.360;2023-08-21T00:02:23;22.20;99.90
3756;DHT22;1893;52.526;13.360;2023-08-21T00:04:51;22.20;99.90
3756;DHT22;1893;52.526;13.360;2023-08-21T00:07:16;22.20;99.90
3756;DHT22;1893;52.526;13.360;2023-08-21T00:09:42;22.20;99.90
3756;DHT22;1893;52.526;13.360;2023-08-21T00:12:07;22.20;99.90
3756;DHT22;1893;52.526;13.360;2023-08-21T00:14:33;22.10;99.90
3756;DHT22;1893;52.526;13.360;2023-08-21T00:16:58;22.10;99.90
3756;DHT22;1893;52.526;13.360;2023-08-21T00:19:24;22.00;99.90
3756;DHT22;1893;52.526;13.360;2023-08-21T00:21:50;22.10;99.90
3756;DHT22;1893;52.526;13.360;2023-08-21T00:24:15;22.10;99.90
3756;DHT22;1893;52.526;13.360;2023-08-21T00:26:41;22.00;99.90
3756;DHT22;1893;52.526;13.360;2023-08-21T00:29:06;22.10;99.90
3756;DHT22;1893;52.526;13.360;2023-08-21T00:31:32;22.10;99.90
3756;DHT22;1893;52.526;13.360;2023-08-21T00:33:58;22.00;99.90
3756;DHT22;1893;52.526;13.360;2023-08-21T00:36:23;22.00;99.90
3756;DHT22;1893;52.526;13.360;2023-08-21T00:38:49;22.00;99.90
3756;DHT22;1893;52.526;13.360;2023-08-21T00:41:14;22.00;99.90
3756;DHT22;1893;52.526;13.360;2023-08-21T00:43:40;22.00;99.90
3756;DHT22;1893;52.526;13.360;2023-08-21T00:46:06;21.90;99.90
3756;DHT22;1893;52.526;13.360;2023-08-21T00:48:32;22.00;99.90
3756;DHT22;1893;52.526;13.360;2023-08-21T00:50:58;21.90;99.90
3756;DHT22;1893;52.526;13.360;2023-08-21T00:53:24;21.90;99.90
3756;DHT22;1893;52.526;13.360;2023-08-21T00:55:50;21.90;99.90
3756;DHT22;1893;52.526;13.360;2023-08-21T00:58:17;21.90;99.90
3756;DHT22;1893;52.526;13.360;2023-08-21T01:00:45;21.70;99.90
3756;DHT22;1893;52.526;13.360;2023-08-21T01:03:10;21.70;99.90
3756;DHT22;1893;52.526;13.360;2023-08-21T01:05:36;21.70;99.90
3756;DHT22;1893;52.526;13.360;2023-08-21T01:11:02;21.80;99.90
3756;DHT22;1893;52.526;13.360;2023-08-21T01:13:45;21.80;99.90
3756;DHT22;1893;52.526;13.360;2023-08-21T01:16:13;21.70;99.90
3756;DHT22;1893;52.526;13.360;2023-08-21T01:18:40;21.70;99.90
3756;DHT22;1893;52.526;13.360;2023-08-21T01:21:07;21.70;99.90
3756;DHT22;1893;52.526;13.360;2023-08-21T01:23:34;21.70;99.90
3756;DHT22;1893;52.526;13.360;2023-08-21T01:26:00;21.70;99.90
3756;DHT22;1893;52.526;13.360;2023-08-21T01:28:26;21.80;99.90
3756;DHT22;1893;52.526;13.360;2023-08-21T01:33:48;21.70;99.90
3756;DHT22;1893;52.526;13.360;2023-08-21T01:36:15;21.80;99.90
3756;DHT22;1893;52.526;13.360;2023-08-21T01:38:41;21.90;99.90
3756;DHT22;1893;52.526;13.360;2023-08-21T01:41:07;21.80;99.90
3756;DHT22;1893;52.526;13.360;2023-08-21T01:43:33;21.80;99.90
3756;DHT22;1893;52.526;13.360;2023-08-21T01:46:01;21.90;99.90
3756;DHT22;1893;52.526;13.360;2023-08-21T01:48:26;21.80;99.90
3756;DHT22;1893;52.526;13.360;2023-08-21T01:50:52;21.90;99.90
3756;DHT22;1893;52.526;13.360;2023-08-21T01:53:17;21.90;99.90
3756;DHT22;1893;52.526;13.360;2023-08-21T01:55:43;21.90;99.90
3756;DHT22;1893;52.526;13.360;2023-08-21T01:58:09;21.90;99.90
3756;DHT22;1893;52.526;13.360;2023-08-21T02:00:34;21.90;99.90
3756;DHT22;1893;52.526;13.360;2023-08-21T02:03:00;21.90;99.90
3756;DHT22;1893;52.526;13.360;2023-08-21T02:05:25;21.90;99.90
3756;DHT22;1893;52.526;13.360;2023-08-21T02:07:51;21.90;99.90
3756;DHT22;1893;52.526;13.360;2023-08-21T02:10:16;21.80;99.90
3756;DHT22;1893;52.526;13.360;2023-08-21T02:12:42;21.80;99.90
3756;DHT22;1893;52.526;13.360;2023-08-21T02:15:08;21.70;99.90
3756;DHT22;1893;52.526;13.360;2023-08-21T02:17:35;21.60;99.90
3756;DHT22;1893;52.526;13.360;2023-08-21T02:20:01;21.60;99.90
3756;DHT22;1893;52.526;13.360;2023-08-21T02:22:26;21.60;99.90
3756;DHT22;1893;52.526;13.360;2023-08-21T02:24:53;21.60;99.90
3756;DHT22;1893;52.526;13.360;2023-08-21T02:27:18;21.60;99.90
3756;DHT22;1893;52.526;13.360;2023-08-21T02:29:44;21.50;99.90
3756;DHT22;1893;52.526;13.360;2023-08-21T02:32:09;21.50;99.90
3756;DHT22;1893;52.526;13.360;2023-08-21T02:34:35;21.50;99.90
3756;DHT22;1893;52.526;13.360;2023-08-21T02:37:01;21.50;99.90
3756;DHT22;1893;52.526;13.360;2023-08-21T02:39:28;21.50;99.90
3756;DHT22;1893;52.526;13.360;2023-08-21T02:41:54;21.50;99.90
3756;DHT22;1893;52.526;13.360;2023-08-21T02:44:19;21.60;99.90
3756;DHT22;1893;52.526;13.360;2023-08-21T02:46:45;21.60;99.90
3756;DHT22;1893;52.526;13.360;2023-08-21T02:49:11;21.50;99.90
3756;DHT22;1893;52.526;13.360;2023-08-21T02:51:36;21.50;99.90
3756;DHT22;1893;52.526;13.360;2023-08-21T02:54:02;21.50;99.90
3756;DHT22;1893;52.526;13.360;2023-08-21T02:56:27;21.50;99.90
3756;DHT22;1893;52.526;13.360;2023-08-21T02:58:53;21.50;99.90
3756;DHT22;1893;52.526;13.360;2023-08-21T03:01:18;21.50;99.90
3756;DHT22;1893;52.526;13.360;2023-08-21T03:03:44;21.60;99.90
3756;DHT22;1893;52.526;13.360;2023-08-21T03:06:10;21.50;99.90
3756;DHT22;1893;52.526;13.360;2023-08-21T03:08:35;21.60;99.90
3756;DHT22;1893;52.526;13.360;2023-08-21T03:11:01;21.50;99.90
3756;DHT22;1893;52.526;13.360;2023-08-21T03:13:26;21.60;99.90
3756;DHT22;1893;52.526;13.360;2023-08-21T03:15:52;21.50;99.90
3756;DHT22;1893;52.526;13.360;2023-08-21T03:18:18;21.50;99.90
3756;DHT22;1893;52.526;13.360;2023-08-21T03:20:46;21.60;99.90
3756;DHT22;1893;52.526;13.360;2023-08-21T03:23:12;21.50;99.90
3756;DHT22;1893;52.526;13.360;2023-08-21T03:25:38;21.60;99.90
3756;DHT22;1893;52.526;13.360;2023-08-21T03:28:04;21.50;99.90
3756;DHT22;1893;52.526;13.360;2023-08-21T03:30:30;21.50;99.90
3756;DHT22;1893;52.526;13.360;2023-08-21T03:32:55;21.60;99.90
3756;DHT22;1893;52.526;13.360;2023-08-21T03:35:21;21.60;99.90
3756;DHT22;1893;52.526;13.360;2023-08-21T03:37:46;21.60;99.90
3756;DHT22;1893;52.526;13.360;2023-08-21T03:40:12;21.60;99.90
3756;DHT22;1893;52.526;13.360;2023-08-21T03:42:37;21.50;99.90
3756;DHT22;1893;52.526;13.360;2023-08-21T03:45:03;21.50;99.90
3756;DHT22;1893;52.526;13.360;2023-08-21T03:47:30;21.50;99.90
3756;DHT22;1893;52.526;13.360;2023-08-21T03:49:56;21.50;99.90
3756;DHT22;1893;52.526;13.360;2023-08-21T03:52:21;21.50;99.90
3756;DHT22;1893;52.526;13.360;2023-08-21T03:54:47;21.40;99.90
3756;DHT22;1893;52.526;13.360;2023-08-21T03:57:12;21.40;99.90
3756;DHT22;1893;52.526;13.360;2023-08-21T03:59:38;21.40;99.90
3756;DHT22;1893;52.526;13.360;2023-08-21T04:02:04;21.40;99.90
3756;DHT22;1893;52.526;13.360;2023-08-21T04:04:29;21.40;99.90
3756;DHT22;1893;52.526;13.360;2023-08-21T04:06:55;21.40;99.90
3756;DHT22;1893;52.526;13.360;2023-08-21T04:09:21;21.40;99.90
3756;DHT22;1893;52.526;13.360;2023-08-21T04:11:46;21.40;99.90
3756;DHT22;1893;52.526;13.360;2023-08-21T04:14:12;21.30;99.90
3756;DHT22;1893;52.526;13.360;2023-08-21T04:16:37;21.40;99.90
3756;DHT22;1893;52.526;13.360;2023-08-21T04:19:03;21.40;99.90
3756;DHT22;1893;52.526;13.360;2023-08-21T04:21:29;21.30;99.90
3756;DHT22;1893;52.526;13.360;2023-08-21T04:23:54;21.40;99.90
3756;DHT22;1893;52.526;13.360;2023-08-21T04:26:20;21.40;99.90
3756;DHT22;1893;52.526;13.360;2023-08-21T04:28:46;21.30;99.90
3756;DHT22;1893;52.526;13.360;2023-08-21T04:31:12;21.30;99.90
3756;DHT22;1893;52.526;13.360;2023-08-21T04:33:38;21.40;99.90
3756;DHT22;1893;52.526;13.360;2023-08-21T04:36:04;21.30;99.90
3756;DHT22;1893;52.526;13.360;2023-08-21T04:38:30;21.40;99.90
3756;DHT22;1893;52.526;13.360;2023-08-21T04:40:55;21.40;99.90
3756;DHT22;1893;52.526;13.360;2023-08-21T04:43:21;21.50;99.90
3756;DHT22;1893;52.526;13.360;2023-08-21T04:45:53;21.50;99.90
3756;DHT22;1893;52.526;13.360;2023-08-21T04:48:19;21.50;99.90
3756;DHT22;1893;52.526;13.360;2023-08-21T04:50:46;21.50;99.90
3756;DHT22;1893;52.526;13.360;2023-08-21T04:53:12;21.50;99.90
3756;DHT22;1893;52.526;13.360;2023-08-21T04:55:39;21.50;99.90
3756;DHT22;1893;52.526;13.360;2023-08-21T04:58:09;21.60;99.90
3756;DHT22;1893;52.526;13.360;2023-08-21T05:00:36;21.60;99.90
3756;DHT22;1893;52.526;13.360;2023-08-21T05:03:01;21.70;99.90
3756;DHT22;1893;52.526;13.360;2023-08-21T05:05:27;21.70;99.90
3756;DHT22;1893;52.526;13.360;2023-08-21T05:07:53;21.70;99.90
3756;DHT22;1893;52.526;13.360;2023-08-21T05:10:20;21.70;99.90
3756;DHT22;1893;52.526;13.360;2023-08-21T05:12:46;21.70;99.90
3756;DHT22;1893;52.526;13.360;2023-08-21T05:15:12;21.60;99.90
3756;DHT22;1893;52.526;13.360;2023-08-21T05:17:37;21.50;99.90
3756;DHT22;1893;52.526;13.360;2023-08-21T05:20:03;21.50;99.90
3756;DHT22;1893;52.526;13.360;2023-08-21T05:22:29;21.50;99.90
3756;DHT22;1893;52.526;13.360;2023-08-21T05:24:55;21.40;99.90
3756;DHT22;1893;52.526;13.360;2023-08-21T05:27:20;21.50;99.90
3756;DHT22;1893;52.526;13.360;2023-08-21T05:29:46;21.60;99.90
3756;DHT22;1893;52.526;13.360;2023-08-21T05:32:11;21.70;99.90
3756;DHT22;1893;52.526;13.360;2023-08-21T05:34:37;21.80;99.90
3756;DHT22;1893;52.526;13.360;2023-08-21T05:37:03;21.80;99.90
3756;DHT22;1893;52.526;13.360;2023-08-21T05:39:28;21.80;99.90
3756;DHT22;1893;52.526;13.360;2023-08-21T05:41:54;21.90;99.90
3756;DHT22;1893;52.526;13.360;2023-08-21T05:44:20;22.00;99.90
3756;DHT22;1893;52.526;13.360;2023-08-21T05:46:45;22.10;99.90
3756;DHT22;1893;52.526;13.360;2023-08-21T05:49:11;22.20;99.90
3756;DHT22;1893;52.526;13.360;2023-08-21T05:51:37;22.20;99.90
3756;DHT22;1893;52.526;13.360;2023-08-21T05:54:02;22.20;99.90
3756;DHT22;1893;52.526;13.360;2023-08-21T05:56:28;22.20;99.90
3756;DHT22;1893;52.526;13.360;2023-08-21T05:58:53;22.30;99.90
3756;DHT22;1893;52.526;13.360;2023-08-21T06:01:19;22.30;99.90
3756;DHT22;1893;52.526;13.360;2023-08-21T06:03:44;22.40;99.90
3756;DHT22;1893;52.526;13.360;2023-08-21T06:06:10;22.50;99.90
3756;DHT22;1893;52.526;13.360;2023-08-21T06:08:36;22.50;99.90
3756;DHT22;1893;52.526;13.360;2023-08-21T06:11:01;22.60;99.90
3756;DHT22;1893;52.526;13.360;2023-08-21T06:13:27;22.70;99.90
3756;DHT22;1893;52.526;13.360;2023-08-21T06:15:53;22.80;99.90
3756;DHT22;1893;52.526;13.360;2023-08-21T06:18:19;22.70;99.90
3756;DHT22;1893;52.526;13.360;2023-08-21T06:20:44;22.80;99.90
3756;DHT22;1893;52.526;13.360;2023-08-21T06:23:11;22.90;99.90
3756;DHT22;1893;52.526;13.360;2023-08-21T06:25:37;22.90;99.90
3756;DHT22;1893;52.526;13.360;2023-08-21T06:28:03;23.10;99.90
3756;DHT22;1893;52.526;13.360;2023-08-21T06:30:29;23.10;99.90
3756;DHT22;1893;52.526;13.360;2023-08-21T06:32:57;23.00;99.90
3756;DHT22;1893;52.526;13.360;2023-08-21T06:35:23;23.20;99.90
3756;DHT22;1893;52.526;13.360;2023-08-21T06:37:49;23.30;99.90
3756;DHT22;1893;52.526;13.360;2023-08-21T06:40:14;23.30;99.90
3756;DHT22;1893;52.526;13.360;2023-08-21T06:42:40;23.30;99.90
3756;DHT22;1893;52.526;13.360;2023-08-21T06:45:05;23.40;99.90
3756;DHT22;1893;52.526;13.360;2023-08-21T06:47:32;23.60;99.90
3756;DHT22;1893;52.526;13.360;2023-08-21T06:49:58;23.70;99.90
3756;DHT22;1893;52.526;13.360;2023-08-21T06:52:25;23.90;99.90
3756;DHT22;1893;52.526;13.360;2023-08-21T06:54:51;24.20;99.90
3756;DHT22;1893;52.526;13.360;2023-08-21T06:57:17;24.40;99.90
3756;DHT22;1893;52.526;13.360;2023-08-21T06:59:42;24.40;99.90
3756;DHT22;1893;52.526;13.360;2023-08-21T07:02:08;24.30;99.90
3756;DHT22;1893;52.526;13.360;2023-08-21T07:04:33;24.00;99.90
3756;DHT22;1893;52.526;13.360;2023-08-21T07:06:59;23.80;99.90
3756;DHT22;1893;52.526;13.360;2023-08-21T07:09:25;24.00;99.90
3756;DHT22;1893;52.526;13.360;2023-08-21T07:11:50;24.10;99.90
3756;DHT22;1893;52.526;13.360;2023-08-21T07:14:16;24.30;99.90
3756;DHT22;1893;52.526;13.360;2023-08-21T07:16:43;24.40;99.90
3756;DHT22;1893;52.526;13.360;2023-08-21T07:19:08;24.70;99.90
3756;DHT22;1893;52.526;13.360;2023-08-21T07:21:34;24.80;99.90
3756;DHT22;1893;52.526;13.360;2023-08-21T07:24:02;24.90;99.90
3756;DHT22;1893;52.526;13.360;2023-08-21T07:26:28;24.90;99.90
3756;DHT22;1893;52.526;13.360;2023-08-21T07:28:54;24.50;99.90
3756;DHT22;1893;52.526;13.360;2023-08-21T07:31:20;24.50;99.90
3756;DHT22;1893;52.526;13.360;2023-08-21T07:33:46;24.50;99.90
3756;DHT22;1893;52.526;13.360;2023-08-21T07:36:11;24.60;99.90
3756;DHT22;1893;52.526;13.360;2023-08-21T07:38:45;24.70;99.90
3756;DHT22;1893;52.526;13.360;2023-08-21T07:41:12;24.80;99.90
3756;DHT22;1893;52.526;13.360;2023-08-21T07:43:40;24.90;99.90
3756;DHT22;1893;52.526;13.360;2023-08-21T07:46:07;24.90;99.90
3756;DHT22;1893;52.526;13.360;2023-08-21T07:48:35;24.90;99.90
3756;DHT22;1893;52.526;13.360;2023-08-21T07:51:00;24.90;99.90
3756;DHT22;1893;52.526;13.360;2023-08-21T07:53:26;24.90;99.90
3756;DHT22;1893;52.526;13.360;2023-08-21T07:55:52;24.90;99.90
3756;DHT22;1893;52.526;13.360;2023-08-21T07:58:18;25.00;99.90
3756;DHT22;1893;52.526;13.360;2023-08-21T08:00:44;25.20;99.90
3756;DHT22;1893;52.526;13.360;2023-08-21T08:03:10;25.30;99.90
3756;DHT22;1893;52.526;13.360;2023-08-21T08:05:36;25.30;99.90
3756;DHT22;1893;52.526;13.360;2023-08-21T08:08:02;25.10;99.90
3756;DHT22;1893;52.526;13.360;2023-08-21T08:10:28;24.80;99.90
3756;DHT22;1893;52.526;13.360;2023-08-21T08:12:54;24.70;99.90
3756;DHT22;1893;52.526;13.360;2023-08-21T08:15:20;24.70;99.90
3756;DHT22;1893;52.526;13.360;2023-08-21T08:17:46;25.00;99.90
3756;DHT22;1893;52.526;13.360;2023-08-21T08:20:14;25.10;99.90
3756;DHT22;1893;52.526;13.360;2023-08-21T08:22:40;25.20;99.90
3756;DHT22;1893;52.526;13.360;2023-08-21T08:25:06;25.00;99.90
3756;DHT22;1893;52.526;13.360;2023-08-21T08:27:32;24.90;99.90
3756;DHT22;1893;52.526;13.360;2023-08-21T08:29:58;24.90;99.90
3756;DHT22;1893;52.526;13.360;2023-08-21T08:32:23;24.70;99.90
3756;DHT22;1893;52.526;13.360;2023-08-21T08:34:49;24.70;99.90
3756;DHT22;1893;52.526;13.360;2023-08-21T08:37:15;24.90;99.90
3756;DHT22;1893;52.526;13.360;2023-08-21T08:39:40;25.30;99.90
3756;DHT22;1893;52.526;13.360;2023-08-21T08:42:06;25.40;99.90
3756;DHT22;1893;52.526;13.360;2023-08-21T08:44:35;25.60;99.90
3756;DHT22;1893;52.526;13.360;2023-08-21T08:47:01;25.70;99.90
3756;DHT22;1893;52.526;13.360;2023-08-21T08:49:27;25.80;99.90
3756;DHT22;1893;52.526;13.360;2023-08-21T08:51:54;25.90;99.90
3756;DHT22;1893;52.526;13.360;2023-08-21T08:54:22;26.10;99.90
3756;DHT22;1893;52.526;13.360;2023-08-21T08:56:50;26.50;99.90
3756;DHT22;1893;52.526;13.360;2023-08-21T08:59:16;26.80;99.90
3756;DHT22;1893;52.526;13.360;2023-08-21T09:01:42;27.20;99.90
3756;DHT22;1893;52.526;13.360;2023-08-21T09:04:08;27.50;99.90
3756;DHT22;1893;52.526;13.360;2023-08-21T09:06:33;27.10;99.90
3756;DHT22;1893;52.526;13.360;2023-08-21T09:08:59;26.90;99.90
3756;DHT22;1893;52.526;13.360;2023-08-21T09:11:25;26.80;99.90
3756;DHT22;1893;52.526;13.360;2023-08-21T09:13:53;27.00;99.90
3756;DHT22;1893;52.526;13.360;2023-08-21T09:16:19;26.90;99.90
3756;DHT22;1893;52.526;13.360;2023-08-21T09:19:03;27.10;99.90
3756;DHT22;1893;52.526;13.360;2023-08-21T09:21:28;27.00;99.90
3756;DHT22;1893;52.526;13.360;2023-08-21T09:23:59;26.90;99.90
3756;DHT22;1893;52.526;13.360;2023-08-21T09:26:25;27.20;99.90
3756;DHT22;1893;52.526;13.360;2023-08-21T09:28:52;27.00;99.90
3756;DHT22;1893;52.526;13.360;2023-08-21T09:31:33;27.10;99.90
3756;DHT22;1893;52.526;13.360;2023-08-21T09:34:00;26.90;99.90
3756;DHT22;1893;52.526;13.360;2023-08-21T09:36:27;27.00;99.90
3756;DHT22;1893;52.526;13.360;2023-08-21T09:38:52;27.30;99.90
3756;DHT22;1893;52.526;13.360;2023-08-21T09:41:22;27.10;99.90
3756;DHT22;1893;52.526;13.360;2023-08-21T09:43:48;27.30;99.90
3756;DHT22;1893;52.526;13.360;2023-08-21T09:46:17;27.20;99.90
3756;DHT22;1893;52.526;13.360;2023-08-21T09:48:50;27.60;99.90
3756;DHT22;1893;52.526;13.360;2023-08-21T09:51:17;27.30;99.90
3756;DHT22;1893;52.526;13.360;2023-08-21T09:53:42;27.20;99.90
3756;DHT22;1893;52.526;13.360;2023-08-21T09:56:08;27.30;99.90
3756;DHT22;1893;52.526;13.360;2023-08-21T09:58:37;27.30;99.90
3756;DHT22;1893;52.526;13.360;2023-08-21T10:01:08;27.20;99.90
3756;DHT22;1893;52.526;13.360;2023-08-21T10:03:41;27.10;99.90
3756;DHT22;1893;52.526;13.360;2023-08-21T10:06:11;27.40;99.90
3756;DHT22;1893;52.526;13.360;2023-08-21T10:08:38;27.30;99.90
3756;DHT22;1893;52.526;13.360;2023-08-21T10:11:07;27.70;99.90
3756;DHT22;1893;52.526;13.360;2023-08-21T10:13:35;28.30;99.90
3756;DHT22;1893;52.526;13.360;2023-08-21T10:16:01;29.20;99.90
3756;DHT22;1893;52.526;13.360;2023-08-21T10:18:32;30.40;99.90
3756;DHT22;1893;52.526;13.360;2023-08-21T10:21:20;31.10;99.90
3756;DHT22;1893;52.526;13.360;2023-08-21T10:23:51;31.80;99.90
3756;DHT22;1893;52.526;13.360;2023-08-21T10:26:21;32.20;99.90
3756;DHT22;1893;52.526;13.360;2023-08-21T10:28:54;31.90;99.90
3756;DHT22;1893;52.526;13.360;2023-08-21T10:31:37;31.20;99.90
3756;DHT22;1893;52.526;13.360;2023-08-21T10:34:12;29.60;99.90
3756;DHT22;1893;52.526;13.360;2023-08-21T10:39:25;28.40;99.90
3756;DHT22;1893;52.526;13.360;2023-08-21T10:47:20;27.30;99.90
3756;DHT22;1893;52.526;13.360;2023-08-21T10:49:48;27.60;99.90
3756;DHT22;1893;52.526;13.360;2023-08-21T10:52:15;29.30;99.90
3756;DHT22;1893;52.526;13.360;2023-08-21T10:54:50;30.80;99.90
3756;DHT22;1893;52.526;13.360;2023-08-21T10:57:16;32.40;99.90
3756;DHT22;1893;52.526;13.360;2023-08-21T11:02:27;31.50;99.90
3756;DHT22;1893;52.526;13.360;2023-08-21T11:04:54;30.30;99.90
3756;DHT22;1893;52.526;13.360;2023-08-21T11:07:20;29.60;99.90
3756;DHT22;1893;52.526;13.360;2023-08-21T11:09:47;29.10;99.90
3756;DHT22;1893;52.526;13.360;2023-08-21T11:12:15;28.60;99.90
3756;DHT22;1893;52.526;13.360;2023-08-21T11:14:42;28.50;99.90
3756;DHT22;1893;52.526;13.360;2023-08-21T11:17:09;28.50;99.90
3756;DHT22;1893;52.526;13.360;2023-08-21T11:19:36;28.10;99.90
3756;DHT22;1893;52.526;13.360;2023-08-21T11:22:03;28.00;99.90
3756;DHT22;1893;52.526;13.360;2023-08-21T11:24:42;27.60;99.90
3756;DHT22;1893;52.526;13.360;2023-08-21T11:27:08;27.50;99.90
3756;DHT22;1893;52.526;13.360;2023-08-21T11:29:37;27.40;99.90
3756;DHT22;1893;52.526;13.360;2023-08-21T11:32:12;27.40;99.90
3756;DHT22;1893;52.526;13.360;2023-08-21T11:34:37;27.50;99.90
3756;DHT22;1893;52.526;13.360;2023-08-21T11:37:05;27.30;99.90
3756;DHT22;1893;52.526;13.360;2023-08-21T11:39:42;27.10;99.90
3756;DHT22;1893;52.526;13.360;2023-08-21T11:42:12;27.20;99.90
3756;DHT22;1893;52.526;13.360;2023-08-21T11:44:46;27.40;99.90
3756;DHT22;1893;52.526;13.360;2023-08-21T11:47:13;27.70;99.90
3756;DHT22;1893;52.526;13.360;2023-08-21T11:49:43;27.70;99.90
3756;DHT22;1893;52.526;13.360;2023-08-21T11:52:10;27.60;99.90
3756;DHT22;1893;52.526;13.360;2023-08-21T11:54:37;27.50;99.90
3756;DHT22;1893;52.526;13.360;2023-08-21T11:57:08;27.30;99.90
3756;DHT22;1893;52.526;13.360;2023-08-21T11:59:34;27.10;99.90
3756;DHT22;1893;52.526;13.360;2023-08-21T12:01:59;27.00;99.90
3756;DHT22;1893;52.526;13.360;2023-08-21T12:04:25;26.90;99.90
3756;DHT22;1893;52.526;13.360;2023-08-21T12:06:51;27.00;99.90
3756;DHT22;1893;52.526;13.360;2023-08-21T12:09:17;27.10;99.90
3756;DHT22;1893;52.526;13.360;2023-08-21T12:11:44;26.90;99.90
3756;DHT22;1893;52.526;13.360;2023-08-21T12:14:10;26.90;99.90
3756;DHT22;1893;52.526;13.360;2023-08-21T12:16:37;27.10;99.90
3756;DHT22;1893;52.526;13.360;2023-08-21T12:19:03;27.10;99.90
3756;DHT22;1893;52.526;13.360;2023-08-21T12:21:28;27.10;99.90
3756;DHT22;1893;52.526;13.360;2023-08-21T12:23:54;26.90;99.90
3756;DHT22;1893;52.526;13.360;2023-08-21T12:26:20;26.90;99.90
3756;DHT22;1893;52.526;13.360;2023-08-21T12:28:49;27.10;99.90
3756;DHT22;1893;52.526;13.360;2023-08-21T12:31:15;27.20;99.90
3756;DHT22;1893;52.526;13.360;2023-08-21T12:33:40;27.60;99.90
3756;DHT22;1893;52.526;13.360;2023-08-21T12:36:06;28.00;99.90
3756;DHT22;1893;52.526;13.360;2023-08-21T12:38:34;28.20;99.90
3756;DHT22;1893;52.526;13.360;2023-08-21T12:41:01;28.40;99.90
3756;DHT22;1893;52.526;13.360;2023-08-21T12:43:27;28.70;99.90
3756;DHT22;1893;52.526;13.360;2023-08-21T12:45:53;28.30;99.90
3756;DHT22;1893;52.526;13.360;2023-08-21T12:48:18;28.20;99.90
3756;DHT22;1893;52.526;13.360;2023-08-21T12:50:44;28.30;99.90
3756;DHT22;1893;52.526;13.360;2023-08-21T12:53:10;28.30;99.90
3756;DHT22;1893;52.526;13.360;2023-08-21T12:55:35;27.60;99.90
3756;DHT22;1893;52.526;13.360;2023-08-21T12:58:01;27.50;99.90
3756;DHT22;1893;52.526;13.360;2023-08-21T13:00:27;27.30;99.90
3756;DHT22;1893;52.526;13.360;2023-08-21T13:02:52;27.20;99.90
3756;DHT22;1893;52.526;13.360;2023-08-21T13:05:18;27.30;99.90
3756;DHT22;1893;52.526;13.360;2023-08-21T13:07:43;27.40;99.90
3756;DHT22;1893;52.526;13.360;2023-08-21T13:10:09;27.40;99.90
3756;DHT22;1893;52.526;13.360;2023-08-21T13:12:36;27.70;99.90
3756;DHT22;1893;52.526;13.360;2023-08-21T13:15:02;28.10;99.90
3756;DHT22;1893;52.526;13.360;2023-08-21T13:17:28;28.10;99.90
3756;DHT22;1893;52.526;13.360;2023-08-21T13:19:53;28.10;99.90
3756;DHT22;1893;52.526;13.360;2023-08-21T13:22:19;27.70;99.90
3756;DHT22;1893;52.526;13.360;2023-08-21T13:24:44;27.30;99.90
3756;DHT22;1893;52.526;13.360;2023-08-21T13:27:10;27.20;99.90
3756;DHT22;1893;52.526;13.360;2023-08-21T13:29:38;26.90;99.90
3756;DHT22;1893;52.526;13.360;2023-08-21T13:32:03;27.10;99.90
3756;DHT22;1893;52.526;13.360;2023-08-21T13:34:29;27.10;99.90
3756;DHT22;1893;52.526;13.360;2023-08-21T13:36:55;27.10;99.90
3756;DHT22;1893;52.526;13.360;2023-08-21T13:39:20;27.00;99.90
3756;DHT22;1893;52.526;13.360;2023-08-21T13:41:48;27.10;99.90
3756;DHT22;1893;52.526;13.360;2023-08-21T13:44:15;27.10;99.90
3756;DHT22;1893;52.526;13.360;2023-08-21T13:46:41;27.10;99.90
3756;DHT22;1893;52.526;13.360;2023-08-21T13:49:07;27.10;99.90
3756;DHT22;1893;52.526;13.360;2023-08-21T13:51:32;27.10;99.90
3756;DHT22;1893;52.526;13.360;2023-08-21T13:53:58;27.20;99.90
3756;DHT22;1893;52.526;13.360;2023-08-21T13:56:24;27.30;99.90
3756;DHT22;1893;52.526;13.360;2023-08-21T13:58:50;27.30;99.90
3756;DHT22;1893;52.526;13.360;2023-08-21T14:01:15;27.30;99.90
3756;DHT22;1893;52.526;13.360;2023-08-21T14:03:41;27.20;99.90
3756;DHT22;1893;52.526;13.360;2023-08-21T14:06:08;27.40;99.90
3756;DHT22;1893;52.526;13.360;2023-08-21T14:08:37;27.50;99.90
3756;DHT22;1893;52.526;13.360;2023-08-21T14:11:02;27.20;99.90
3756;DHT22;1893;52.526;13.360;2023-08-21T14:13:28;27.30;99.90
3756;DHT22;1893;52.526;13.360;2023-08-21T14:15:53;27.30;99.90
3756;DHT22;1893;52.526;13.360;2023-08-21T14:18:19;27.20;99.90
3756;DHT22;1893;52.526;13.360;2023-08-21T14:20:45;26.90;99.90
3756;DHT22;1893;52.526;13.360;2023-08-21T14:23:10;26.90;99.90
3756;DHT22;1893;52.526;13.360;2023-08-21T14:25:36;26.90;99.90
3756;DHT22;1893;52.526;13.360;2023-08-21T14:28:03;26.80;99.90
3756;DHT22;1893;52.526;13.360;2023-08-21T14:30:29;26.60;99.90
3756;DHT22;1893;52.526;13.360;2023-08-21T14:32:54;26.80;99.90
3756;DHT22;1893;52.526;13.360;2023-08-21T14:35:20;27.00;99.90
3756;DHT22;1893;52.526;13.360;2023-08-21T14:37:46;27.30;99.90
3756;DHT22;1893;52.526;13.360;2023-08-21T14:40:11;27.30;99.80
3756;DHT22;1893;52.526;13.360;2023-08-21T14:42:38;27.20;99.90
3756;DHT22;1893;52.526;13.360;2023-08-21T14:45:04;27.00;99.90
3756;DHT22;1893;52.526;13.360;2023-08-21T14:47:31;26.80;99.90
3756;DHT22;1893;52.526;13.360;2023-08-21T14:49:57;26.60;99.90
3756;DHT22;1893;52.526;13.360;2023-08-21T14:52:23;26.60;99.90
3756;DHT22;1893;52.526;13.360;2023-08-21T14:54:51;26.50;99.90
3756;DHT22;1893;52.526;13.360;2023-08-21T14:57:16;26.30;99.90
3756;DHT22;1893;52.526;13.360;2023-08-21T14:59:42;26.30;99.50
3756;DHT22;1893;52.526;13.360;2023-08-21T15:02:08;26.20;99.90
3756;DHT22;1893;52.526;13.360;2023-08-21T15:04:33;26.40;99.90
3756;DHT22;1893;52.526;13.360;2023-08-21T15:06:59;26.80;99.90
3756;DHT22;1893;52.526;13.360;2023-08-21T15:09:24;27.30;99.90
3756;DHT22;1893;52.526;13.360;2023-08-21T15:11:50;27.60;99.90
3756;DHT22;1893;52.526;13.360;2023-08-21T15:14:16;27.70;99.90
3756;DHT22;1893;52.526;13.360;2023-08-21T15:16:41;27.70;99.90
3756;DHT22;1893;52.526;13.360;2023-08-21T15:19:07;27.60;99.90
3756;DHT22;1893;52.526;13.360;2023-08-21T15:21:33;27.40;99.90
3756;DHT22;1893;52.526;13.360;2023-08-21T15:23:58;27.10;99.90
3756;DHT22;1893;52.526;13.360;2023-08-21T15:26:25;26.70;99.90
3756;DHT22;1893;52.526;13.360;2023-08-21T15:28:51;26.60;99.90
3756;DHT22;1893;52.526;13.360;2023-08-21T15:31:16;26.40;99.90
3756;DHT22;1893;52.526;13.360;2023-08-21T15:33:42;26.40;99.90
3756;DHT22;1893;52.526;13.360;2023-08-21T15:36:08;26.30;99.90
3756;DHT22;1893;52.526;13.360;2023-08-21T15:38:33;26.40;99.90
3756;DHT22;1893;52.526;13.360;2023-08-21T15:40:59;26.50;99.90
3756;DHT22;1893;52.526;13.360;2023-08-21T15:43:24;26.60;99.90
3756;DHT22;1893;52.526;13.360;2023-08-21T15:45:51;26.70;99.90
3756;DHT22;1893;52.526;13.360;2023-08-21T15:48:18;26.80;99.90
3756;DHT22;1893;52.526;13.360;2023-08-21T15:50:43;26.80;99.90
3756;DHT22;1893;52.526;13.360;2023-08-21T15:53:09;26.80;99.90
3756;DHT22;1893;52.526;13.360;2023-08-21T15:55:35;26.70;99.90
3756;DHT22;1893;52.526;13.360;2023-08-21T15:58:00;26.60;99.90